createdAt,value
2023-03-23T15:59:31.316Z,17.00
2023-03-23T16:01:58.090Z,16.90
2023-03-23T16:04:26.541Z,16.90
2023-03-23T16:06:55.790Z,16.80
2023-03-23T16:09:22.726Z,16.80
2023-03-23T16:11:49.267Z,16.80
2023-03-23T16:14:16.111Z,16.70
2023-03-23T16:16:50.262Z,16.70
2023-03-23T16:19:18.040Z,16.60
2023-03-23T16:21:44.587Z,16.60
2023-03-23T16:24:11.369Z,16.50
2023-03-23T16:26:40.309Z,16.40
2023-03-23T16:29:23.958Z,16.50
2023-03-23T16:31:55.583Z,16.40
2023-03-23T16:34:22.177Z,16.30
2023-03-23T16:36:49.106Z,16.30
2023-03-23T16:39:19.036Z,16.20
2023-03-23T16:41:45.944Z,16.10
2023-03-23T16:44:12.580Z,16.10
2023-03-23T16:46:39.541Z,16.10
2023-03-23T16:49:06.439Z,16.10
2023-03-23T16:51:33.235Z,16.00
2023-03-23T16:53:59.821Z,16.10
2023-03-23T16:56:26.456Z,16.10
2023-03-23T16:58:53.068Z,16.00
2023-03-23T17:01:19.862Z,16.00
2023-03-23T17:03:46.521Z,16.00
2023-03-23T17:06:13.172Z,16.00
2023-03-23T17:08:39.854Z,15.90
2023-03-23T17:11:06.630Z,15.90
2023-03-23T17:13:34.707Z,15.90
2023-03-23T17:16:01.384Z,15.90
2023-03-23T17:18:29.081Z,15.90
2023-03-23T17:20:55.917Z,15.80
2023-03-23T17:23:22.540Z,15.70
2023-03-23T17:25:50.292Z,15.70
2023-03-23T17:28:18.860Z,15.60
2023-03-23T17:30:46.887Z,15.60
2023-03-23T17:33:13.692Z,15.60
2023-03-23T17:35:41.658Z,15.60
2023-03-23T17:38:08.390Z,15.60
2023-03-23T17:40:35.006Z,15.60
2023-03-23T17:43:02.109Z,15.60
2023-03-23T17:45:28.789Z,15.50
2023-03-23T17:47:55.723Z,15.40
2023-03-23T17:50:22.349Z,15.40
2023-03-23T17:52:49.824Z,15.40
2023-03-23T17:55:17.040Z,15.30
2023-03-23T17:57:44.888Z,15.30
2023-03-23T18:00:13.342Z,15.30
2023-03-23T18:02:39.980Z,15.30
2023-03-23T18:05:09.050Z,15.20
2023-03-23T18:07:36.724Z,15.30
2023-03-23T18:10:05.954Z,15.20
2023-03-23T18:12:32.516Z,15.20
2023-03-23T18:14:59.247Z,15.10
2023-03-23T18:17:26.132Z,15.20
2023-03-23T18:19:53.235Z,15.30
2023-03-23T18:22:20.023Z,15.30
2023-03-23T18:24:47.231Z,15.30
2023-03-23T18:27:14.388Z,15.20
2023-03-23T18:29:41.167Z,15.30
2023-03-23T18:32:08.315Z,15.70
2023-03-23T18:34:36.531Z,15.30
2023-03-23T18:37:03.690Z,15.30
2023-03-23T18:39:33.834Z,15.30
2023-03-23T18:42:00.831Z,15.20
2023-03-23T18:44:27.411Z,15.20
2023-03-23T18:46:53.951Z,15.20
2023-03-23T18:49:20.564Z,15.20
2023-03-23T18:51:47.185Z,15.20
2023-03-23T18:54:13.806Z,15.20
2023-03-23T18:56:40.655Z,15.20
2023-03-23T18:59:07.260Z,15.20
2023-03-23T19:01:34.017Z,15.20
2023-03-23T19:04:02.332Z,15.10
2023-03-23T19:06:34.487Z,15.00
2023-03-23T19:09:01.329Z,15.00
2023-03-23T19:11:28.412Z,15.00
2023-03-23T19:14:02.324Z,15.00
2023-03-23T19:16:31.105Z,15.00
2023-03-23T19:18:57.906Z,15.00
2023-03-23T19:21:29.880Z,15.00
2023-03-23T19:23:58.003Z,15.00
2023-03-23T19:26:34.814Z,15.00
2023-03-23T19:29:25.142Z,15.10
2023-03-23T19:31:50.070Z,15.10
2023-03-23T19:34:16.787Z,15.20
2023-03-23T19:36:50.319Z,15.20
2023-03-23T19:39:21.045Z,15.20
2023-03-23T19:41:48.249Z,15.10
2023-03-23T19:44:14.919Z,15.00
2023-03-23T19:46:41.514Z,14.90
2023-03-23T19:49:08.562Z,14.90
2023-03-23T19:51:35.129Z,14.90
2023-03-23T19:54:01.745Z,14.90
2023-03-23T19:56:30.201Z,14.80
2023-03-23T19:58:56.963Z,14.90
2023-03-23T20:01:23.766Z,14.80
2023-03-23T20:03:50.739Z,14.70
2023-03-23T20:06:18.276Z,14.70
2023-03-23T20:08:47.537Z,14.70
2023-03-23T20:11:18.900Z,14.70
2023-03-23T20:13:48.582Z,14.70
2023-03-23T20:16:16.697Z,14.60
2023-03-23T20:18:44.750Z,14.50
2023-03-23T20:21:14.831Z,14.50
2023-03-23T20:23:43.072Z,14.50
2023-03-23T20:26:15.467Z,14.50
2023-03-23T20:28:43.117Z,14.50
2023-03-23T20:31:23.083Z,14.40
2023-03-23T20:34:00.655Z,14.40
2023-03-23T20:36:42.042Z,14.20
2023-03-23T20:39:12.723Z,14.20
2023-03-23T20:41:40.248Z,14.10
2023-03-23T20:44:09.298Z,14.10
2023-03-23T20:46:36.414Z,13.90
2023-03-23T20:49:05.211Z,13.80
2023-03-23T20:51:33.375Z,13.80
2023-03-23T20:54:01.839Z,13.80
2023-03-23T20:56:28.619Z,13.80
2023-03-23T20:58:55.288Z,13.80
2023-03-23T21:01:22.189Z,13.80
2023-03-23T21:03:52.072Z,13.70
2023-03-23T21:06:19.238Z,13.70
2023-03-23T21:08:46.525Z,13.70
2023-03-23T21:11:19.265Z,13.70
2023-03-23T21:13:46.316Z,13.60
2023-03-23T21:16:13.155Z,13.50
2023-03-23T21:18:40.026Z,13.70
2023-03-23T21:21:09.262Z,13.70
2023-03-23T21:23:38.290Z,13.80
2023-03-23T21:26:08.101Z,13.80
2023-03-23T21:28:34.813Z,13.80
2023-03-23T21:31:04.386Z,13.70
2023-03-23T21:33:31.442Z,13.60
2023-03-23T21:35:58.121Z,13.70
2023-03-23T21:38:27.908Z,13.60
2023-03-23T21:40:55.900Z,13.70
2023-03-23T21:43:26.972Z,13.60
2023-03-23T21:45:56.657Z,13.60
2023-03-23T21:48:25.097Z,13.50
2023-03-23T21:50:52.464Z,13.40
2023-03-23T21:53:20.299Z,13.40
2023-03-23T21:55:51.668Z,13.40
2023-03-23T21:58:21.679Z,13.30
2023-03-23T22:00:49.761Z,13.20
2023-03-23T22:03:18.698Z,13.20
2023-03-23T22:05:46.497Z,13.10
2023-03-23T22:08:13.773Z,13.10
2023-03-23T22:10:41.762Z,13.00
2023-03-23T22:13:08.778Z,13.00
2023-03-23T22:15:35.573Z,12.80
2023-03-23T22:18:02.292Z,12.70
2023-03-23T22:20:29.448Z,12.70
2023-03-23T22:22:56.757Z,12.70
2023-03-23T22:25:24.054Z,12.60
2023-03-23T22:27:50.724Z,12.50
2023-03-23T22:30:17.718Z,12.50
2023-03-23T22:32:44.319Z,12.60
2023-03-23T22:35:12.476Z,12.60
2023-03-23T22:37:39.317Z,12.70
2023-03-23T22:40:07.169Z,12.70
2023-03-23T22:42:33.735Z,12.80
2023-03-23T22:45:00.289Z,12.80
2023-03-23T22:47:26.891Z,13.00
2023-03-23T22:49:53.483Z,13.00
2023-03-23T22:52:20.080Z,13.00
2023-03-23T22:54:48.043Z,13.00
2023-03-23T22:57:15.142Z,13.00
2023-03-23T22:59:42.565Z,13.00
2023-03-23T23:02:09.172Z,12.90
2023-03-23T23:04:36.880Z,12.90
2023-03-23T23:07:12.631Z,12.90
2023-03-23T23:09:44.583Z,12.80
2023-03-23T23:12:13.889Z,12.80
2023-03-23T23:14:44.646Z,12.80
2023-03-23T23:17:11.434Z,12.80
2023-03-23T23:19:38.147Z,12.80
2023-03-23T23:22:18.458Z,12.80
2023-03-23T23:24:46.304Z,12.80
2023-03-23T23:27:12.916Z,12.80
2023-03-23T23:29:40.539Z,12.70
2023-03-23T23:32:08.167Z,12.70
2023-03-23T23:34:34.802Z,12.70
2023-03-23T23:37:01.382Z,12.80
2023-03-23T23:39:27.937Z,12.80
2023-03-23T23:41:55.529Z,12.90
2023-03-23T23:44:22.173Z,12.90
2023-03-23T23:46:48.793Z,12.90
2023-03-23T23:49:15.368Z,12.80
2023-03-23T23:51:41.975Z,12.80
2023-03-23T23:54:09.790Z,12.60
2023-03-23T23:56:36.464Z,12.50
2023-03-23T23:59:03.187Z,12.40
